Time,TemperatureF,DewpointF,PressureIn,WindDirection,WindDirectionDegrees,WindSpeedMPH,WindSpeedGustMPH,Humidity,HourlyPrecipIn,Conditions,Clouds,dailyrainin,SolarRadiationWatts/m^2,SoftwareType,DateUTC
2013-02-20 00:10:00,60.9,60.0,30.07,West,264,0.0,-999.0,96,-99.99,,,0.00,0,weatherlink.com 1.10,2013-02-20 05:10:00,
2013-02-20 00:25:00,59.9,59.0,30.07,West,264,0.0,-999.0,96,-99.99,,,0.00,0,weatherlink.com 1.10,2013-02-20 05:25:00,
2013-02-20 00:40:00,59.0,58.0,30.07,West,264,0.0,-999.0,97,-99.99,,,0.00,0,weatherlink.com 1.10,2013-02-20 05:40:00,
2013-02-20 00:55:00,58.9,58.0,30.08,West,264,0.0,-999.0,98,-99.99,,,0.00,0,weatherlink.com 1.10,2013-02-20 05:55:00,
2013-02-20 01:10:00,59.6,59.0,30.07,West,264,0.0,-999.0,99,-99.99,,,0.00,0,weatherlink.com 1.10,2013-02-20 06:10:00,
2013-02-20 01:25:00,59.5,59.0,30.07,West,264,0.0,-999.0,99,-99.99,,,0.00,0,weatherlink.com 1.10,2013-02-20 06:25:00,
2013-02-20 01:40:00,59.5,59.0,30.07,West,264,0.0,-999.0,99,-99.99,,,0.00,0,weatherlink.com 1.10,2013-02-20 06:40:00,
2013-02-20 01:55:00,59.5,60.0,30.08,West,264,0.0,-999.0,100,-99.99,,,0.00,0,weatherlink.com 1.10,2013-02-20 06:55:00,
2013-02-20 02:10:00,59.2,59.0,30.07,West,264,0.0,-999.0,99,-99.99,,,0.00,0,weatherlink.com 1.10,2013-02-20 07:10:00,
2013-02-20 02:26:00,59.2,59.0,30.07,West,264,0.0,-999.0,100,-99.99,,,0.00,0,weatherlink.com 1.10,2013-02-20 07:26:00,
2013-02-20 02:40:00,58.9,59.0,30.07,West,264,0.0,-999.0,100,-99.99,,,0.00,0,weatherlink.com 1.10,2013-02-20 07:40:00,
2013-02-20 02:55:00,58.1,58.0,30.06,West,264,0.0,-999.0,100,-99.99,,,0.00,0,weatherlink.com 1.10,2013-02-20 07:55:00,
2013-02-20 03:10:00,57.0,57.0,30.06,West,264,0.0,-999.0,100,-99.99,,,0.00,0,weatherlink.com 1.10,2013-02-20 08:10:00,
2013-02-20 03:25:00,55.7,56.0,30.06,West,264,0.0,-999.0,100,-99.99,,,0.00,0,weatherlink.com 1.10,2013-02-20 08:25:00,
2013-02-20 03:40:00,54.7,55.0,30.06,West,264,0.0,-999.0,100,-99.99,,,0.00,0,weatherlink.com 1.10,2013-02-20 08:40:00,
2013-02-20 03:55:00,54.1,54.0,30.06,West,264,0.0,-999.0,100,-99.99,,,0.00,0,weatherlink.com 1.10,2013-02-20 08:55:00,
2013-02-20 04:10:00,54.1,54.0,30.06,West,264,0.0,-999.0,100,-99.99,,,0.00,0,weatherlink.com 1.10,2013-02-20 09:10:00,
2013-02-20 04:25:00,54.8,55.0,30.05,West,264,0.0,-999.0,100,-99.99,,,0.00,0,weatherlink.com 1.10,2013-02-20 09:25:00,
2013-02-20 04:40:00,54.5,55.0,30.05,West,264,0.0,-999.0,100,-99.99,,,0.00,0,weatherlink.com 1.10,2013-02-20 09:40:00,
2013-02-20 04:55:00,54.5,55.0,30.05,West,264,0.0,-999.0,100,-99.99,,,0.00,0,weatherlink.com 1.10,2013-02-20 09:55:00,
2013-02-20 05:11:00,54.7,55.0,30.06,West,264,0.0,-999.0,100,-99.99,,,0.00,0,weatherlink.com 1.10,2013-02-20 10:11:00,
2013-02-20 05:25:00,54.2,54.0,30.06,NNE,17,0.0,-999.0,100,-99.99,,,0.00,0,weatherlink.com 1.10,2013-02-20 10:25:00,
2013-02-20 05:40:00,56.3,56.0,30.07,NNE,17,0.0,-999.0,100,-99.99,,,0.00,0,weatherlink.com 1.10,2013-02-20 10:40:00,
2013-02-20 05:55:00,57.6,58.0,30.07,NNE,17,0.0,-999.0,100,-99.99,,,0.00,0,weatherlink.com 1.10,2013-02-20 10:55:00,
2013-02-20 06:10:00,59.2,59.0,30.07,NNE,17,0.0,-999.0,100,-99.99,,,0.00,0,weatherlink.com 1.10,2013-02-20 11:10:00,
2013-02-20 06:25:00,59.6,60.0,30.08,NNE,17,0.0,-999.0,100,-99.99,,,0.00,0,weatherlink.com 1.10,2013-02-20 11:25:00,
2013-02-20 06:40:00,59.8,60.0,30.08,NNE,17,0.0,-999.0,100,-99.99,,,0.00,0,weatherlink.com 1.10,2013-02-20 11:40:00,
2013-02-20 06:55:00,58.9,59.0,30.08,NNE,17,0.0,-999.0,100,-99.99,,,0.00,0,weatherlink.com 1.10,2013-02-20 11:55:00,
2013-02-20 07:10:00,58.3,58.0,30.09,NNE,17,0.0,-999.0,100,-99.99,,,0.00,9,weatherlink.com 1.10,2013-02-20 12:10:00,
2013-02-20 07:25:00,58.1,58.0,30.09,NNE,17,0.0,-999.0,100,-99.99,,,0.00,28,weatherlink.com 1.10,2013-02-20 12:25:00,
2013-02-20 07:40:00,58.3,58.0,30.10,NNE,17,0.0,-999.0,100,-99.99,,,0.00,44,weatherlink.com 1.10,2013-02-20 12:40:00,
2013-02-20 07:55:00,58.6,59.0,30.10,NNE,17,0.0,-999.0,100,-99.99,,,0.00,76,weatherlink.com 1.10,2013-02-20 12:55:00,
2013-02-20 08:10:00,59.3,59.0,30.11,NNE,17,1.0,-999.0,100,-99.99,,,0.00,104,weatherlink.com 1.10,2013-02-20 13:10:00,
2013-02-20 08:26:00,59.9,60.0,30.11,NE,42,0.0,-999.0,100,-99.99,,,0.00,97,weatherlink.com 1.10,2013-02-20 13:26:00,
2013-02-20 08:41:00,61.0,61.0,30.11,NE,42,0.0,-999.0,100,-99.99,,,0.00,135,weatherlink.com 1.10,2013-02-20 13:41:00,
2013-02-20 08:55:00,62.0,62.0,30.12,ENE,58,4.0,-999.0,100,-99.99,,,0.00,220,weatherlink.com 1.10,2013-02-20 13:55:00,
2013-02-20 09:11:00,62.3,62.0,30.11,NE,53,5.0,-999.0,100,-99.99,,,0.00,116,weatherlink.com 1.10,2013-02-20 14:11:00,
2013-02-20 09:26:00,62.7,63.0,30.11,ENE,61,0.0,-999.0,100,-99.99,,,0.00,114,weatherlink.com 1.10,2013-02-20 14:26:00,
2013-02-20 09:41:00,63.1,63.0,30.11,NE,46,0.0,-999.0,100,-99.99,,,0.00,218,weatherlink.com 1.10,2013-02-20 14:41:00,
2013-02-20 09:56:00,62.9,63.0,30.12,East,82,5.0,-999.0,100,-99.99,,,0.00,209,weatherlink.com 1.10,2013-02-20 14:56:00,
2013-02-20 10:11:00,63.7,64.0,30.11,NE,55,5.0,-999.0,100,-99.99,,,0.00,253,weatherlink.com 1.10,2013-02-20 15:11:00,
2013-02-20 10:26:00,64.8,64.0,30.11,ENE,78,4.0,-999.0,97,-99.99,,,0.00,482,weatherlink.com 1.10,2013-02-20 15:26:00,
2013-02-20 10:41:00,66.4,64.0,30.11,NNE,28,0.0,-999.0,91,-99.99,,,0.00,494,weatherlink.com 1.10,2013-02-20 15:41:00,
2013-02-20 10:56:00,67.3,63.0,30.10,ESE,102,2.0,-999.0,87,-99.99,,,0.00,332,weatherlink.com 1.10,2013-02-20 15:56:00,
2013-02-20 11:11:00,69.1,64.0,30.10,ENE,78,0.0,-999.0,83,-99.99,,,0.00,773,weatherlink.com 1.10,2013-02-20 16:11:00,
2013-02-20 11:25:00,70.6,64.0,30.10,East,95,0.0,-999.0,80,-99.99,,,0.00,390,weatherlink.com 1.10,2013-02-20 16:25:00,
2013-02-20 11:41:00,71.8,64.0,30.09,South,177,0.0,-999.0,76,-99.99,,,0.00,283,weatherlink.com 1.10,2013-02-20 16:41:00,
2013-02-20 11:56:00,73.0,64.0,30.09,SW,217,4.0,-999.0,73,-99.99,,,0.00,865,weatherlink.com 1.10,2013-02-20 16:56:00,
2013-02-20 12:11:00,73.5,63.0,30.08,SW,226,5.0,-999.0,70,-99.99,,,0.00,874,weatherlink.com 1.10,2013-02-20 17:11:00,
2013-02-20 12:26:00,73.7,63.0,30.05,SSW,199,4.0,-999.0,69,-99.99,,,0.00,809,weatherlink.com 1.10,2013-02-20 17:26:00,
2013-02-20 12:41:00,74.4,62.0,30.05,WSW,242,3.0,-999.0,65,-99.99,,,0.00,795,weatherlink.com 1.10,2013-02-20 17:41:00,
2013-02-20 12:56:00,75.3,62.0,30.04,SSE,156,5.0,-999.0,64,-99.99,,,0.00,696,weatherlink.com 1.10,2013-02-20 17:56:00,
2013-02-20 13:12:00,76.0,62.0,30.03,South,169,1.0,-999.0,62,-99.99,,,0.00,670,weatherlink.com 1.10,2013-02-20 18:12:00,
2013-02-20 13:26:00,77.0,63.0,30.02,SSW,196,2.0,-999.0,63,-99.99,,,0.00,763,weatherlink.com 1.10,2013-02-20 18:26:00,
2013-02-20 13:41:00,76.8,62.0,30.01,SSW,204,0.0,-999.0,61,-99.99,,,0.00,872,weatherlink.com 1.10,2013-02-20 18:41:00,
2013-02-20 13:55:00,76.8,62.0,30.01,WNW,288,0.0,-999.0,60,-99.99,,,0.00,816,weatherlink.com 1.10,2013-02-20 18:55:00,
2013-02-20 14:10:00,77.7,62.0,30.01,South,186,0.0,-999.0,59,-99.99,,,0.00,329,weatherlink.com 1.10,2013-02-20 19:10:00,
2013-02-20 14:25:00,77.9,61.0,30.00,WNW,296,3.0,-999.0,57,-99.99,,,0.00,411,weatherlink.com 1.10,2013-02-20 19:25:00,
2013-02-20 14:40:00,78.1,62.0,30.00,SW,232,6.0,-999.0,58,-99.99,,,0.00,789,weatherlink.com 1.10,2013-02-20 19:40:00,
2013-02-20 14:55:00,78.1,62.0,30.00,WSW,248,3.0,-999.0,57,-99.99,,,0.00,684,weatherlink.com 1.10,2013-02-20 19:55:00,
2013-02-20 15:10:00,78.8,63.0,29.99,SSW,203,2.0,-999.0,58,-99.99,,,0.00,654,weatherlink.com 1.10,2013-02-20 20:10:00,
2013-02-20 15:25:00,78.5,61.0,29.99,South,171,0.0,-999.0,56,-99.99,,,0.00,610,weatherlink.com 1.10,2013-02-20 20:25:00,
2013-02-20 15:41:00,78.3,60.0,29.98,SW,235,2.0,-999.0,53,-99.99,,,0.00,524,weatherlink.com 1.10,2013-02-20 20:41:00,
2013-02-20 15:55:00,79.0,61.0,29.98,West,261,0.0,-999.0,54,-99.99,,,0.00,443,weatherlink.com 1.10,2013-02-20 20:55:00,
2013-02-20 16:11:00,78.1,61.0,29.99,WSW,239,0.0,-999.0,55,-99.99,,,0.00,234,weatherlink.com 1.10,2013-02-20 21:11:00,
2013-02-20 16:25:00,77.4,61.0,29.98,WSW,239,0.0,-999.0,57,-99.99,,,0.00,148,weatherlink.com 1.10,2013-02-20 21:25:00,
2013-02-20 16:40:00,77.2,61.0,29.99,WSW,239,0.0,-999.0,58,-99.99,,,0.00,142,weatherlink.com 1.10,2013-02-20 21:40:00,
2013-02-20 16:55:00,76.8,62.0,30.00,WNW,293,2.0,-999.0,60,-99.99,,,0.00,54,weatherlink.com 1.10,2013-02-20 21:55:00,
2013-02-20 17:10:00,76.3,62.0,30.01,NW,325,0.0,-999.0,61,-99.99,,,0.00,88,weatherlink.com 1.10,2013-02-20 22:10:00,
2013-02-20 17:25:00,76.1,62.0,30.02,WSW,257,0.0,-999.0,62,-99.99,,,0.00,42,weatherlink.com 1.10,2013-02-20 22:25:00,
2013-02-20 17:40:00,75.6,63.0,30.02,WSW,257,0.0,-999.0,64,-99.99,,,0.00,32,weatherlink.com 1.10,2013-02-20 22:40:00,
2013-02-20 17:55:00,75.1,63.0,30.02,WSW,257,0.0,-999.0,66,-99.99,,,0.00,19,weatherlink.com 1.10,2013-02-20 22:55:00,
2013-02-20 18:10:00,74.7,63.0,30.02,WSW,257,1.0,-999.0,66,-99.99,,,0.00,9,weatherlink.com 1.10,2013-02-20 23:10:00,
2013-02-20 18:25:00,73.9,62.0,30.02,NNE,17,0.0,-999.0,67,-99.99,,,0.00,0,weatherlink.com 1.10,2013-02-20 23:25:00,
2013-02-20 18:40:00,73.0,62.0,30.03,NNE,17,0.0,-999.0,69,-99.99,,,0.00,0,weatherlink.com 1.10,2013-02-20 23:40:00,
2013-02-20 18:55:00,71.8,62.0,30.02,NNE,17,0.0,-999.0,72,-99.99,,,0.00,0,weatherlink.com 1.10,2013-02-20 23:55:00,
2013-02-20 19:10:00,70.4,62.0,30.02,NNE,17,0.0,-999.0,74,-99.99,,,0.00,0,weatherlink.com 1.10,2013-02-21 00:10:00,
2013-02-20 19:26:00,69.8,62.0,30.03,NNW,348,0.0,-999.0,76,-99.99,,,0.00,0,weatherlink.com 1.10,2013-02-21 00:26:00,
2013-02-20 19:40:00,69.6,62.0,30.04,WNW,287,0.0,-999.0,76,-99.99,,,0.00,0,weatherlink.com 1.10,2013-02-21 00:40:00,
2013-02-20 19:55:00,69.1,62.0,30.05,NE,45,0.0,-999.0,77,-99.99,,,0.00,0,weatherlink.com 1.10,2013-02-21 00:55:00,
2013-02-20 20:10:00,68.8,62.0,30.06,NE,54,0.0,-999.0,79,-99.99,,,0.00,0,weatherlink.com 1.10,2013-02-21 01:10:00,
2013-02-20 20:25:00,68.9,62.0,30.06,ENE,69,4.0,-999.0,79,-99.99,,,0.00,0,weatherlink.com 1.10,2013-02-21 01:25:00,
2013-02-20 20:40:00,68.3,62.0,30.06,ENE,76,6.0,-999.0,79,-99.99,,,0.00,0,weatherlink.com 1.10,2013-02-21 01:40:00,
2013-02-20 20:55:00,67.6,61.0,30.06,ENE,61,4.0,-999.0,79,-99.99,,,0.00,0,weatherlink.com 1.10,2013-02-21 01:55:00,
2013-02-20 21:10:00,66.9,60.0,30.07,ENE,74,4.0,-999.0,79,-99.99,,,0.00,0,weatherlink.com 1.10,2013-02-21 02:10:00,
2013-02-20 21:25:00,66.1,60.0,30.07,NE,55,3.0,-999.0,80,-99.99,,,0.00,0,weatherlink.com 1.10,2013-02-21 02:25:00,
2013-02-20 21:40:00,65.6,59.0,30.08,East,90,4.0,-999.0,80,-99.99,,,0.00,0,weatherlink.com 1.10,2013-02-21 02:40:00,
2013-02-20 21:55:00,65.0,59.0,30.08,East,85,0.0,-999.0,82,-99.99,,,0.00,0,weatherlink.com 1.10,2013-02-21 02:55:00,
2013-02-20 22:10:00,64.7,59.0,30.08,NE,48,1.0,-999.0,83,-99.99,,,0.00,0,weatherlink.com 1.10,2013-02-21 03:10:00,
2013-02-20 22:25:00,64.2,59.0,30.08,NE,51,2.0,-999.0,83,-99.99,,,0.00,0,weatherlink.com 1.10,2013-02-21 03:25:00,
2013-02-20 22:40:00,63.4,58.0,30.08,East,84,2.0,-999.0,82,-99.99,,,0.00,0,weatherlink.com 1.10,2013-02-21 03:40:00,
2013-02-20 22:55:00,62.7,58.0,30.07,NE,44,4.0,-999.0,83,-99.99,,,0.00,0,weatherlink.com 1.10,2013-02-21 03:55:00,
2013-02-20 23:10:00,62.1,57.0,30.07,NE,53,2.0,-999.0,83,-99.99,,,0.00,0,weatherlink.com 1.10,2013-02-21 04:10:00,
2013-02-20 23:25:00,61.5,57.0,30.07,NE,53,2.0,-999.0,84,-99.99,,,0.00,0,weatherlink.com 1.10,2013-02-21 04:25:00,
2013-02-20 23:40:00,60.9,57.0,30.06,NE,55,1.0,-999.0,86,-99.99,,,0.00,0,weatherlink.com 1.10,2013-02-21 04:40:00,
2013-02-20 23:55:00,60.4,56.0,30.06,NE,54,0.0,-999.0,86,-99.99,,,0.00,0,weatherlink.com 1.10,2013-02-21 04:55:00,